Peawanuck, Canada
Current Conditions -  °F | °C
As of 8:00 PM on Tuesday 21 Oct 2014 (Local Time) from CYER Reporting Station
Clear Clear  
Wind Chill: 32°   Ceiling: Unl
Heat Index: 41°   Visibility: 9mi
Dew Point: 34°   Wind: 17mph
Humidity: 76%   Direction: 200°SSW
Pressure: 29.89"   Gusts: 29mph
Location:  55.01°N, 85.42°W
Report Text: CYER 220000Z AUTO 20015G25KT 9SM CLR 05/01 A2989 RMK SLP123
Loading
Personal Weather Stations






























Interactive Weather Map
Tropical Storm Tracking
New forecast layout! Learn more

10-Day Weather Forecast

Advertisements
Track Severe Weather on mobile